Time;durP1;ratioP1;P1;durP2;ratioP2;P2;SDS_P1;SDS_P2;PMS_P1;PMS_P2;Temp;Humidity;BMP_temperature;BMP_pressure;BME280_temperature;BME280_humidity;BME280_pressure;Samples;Min_cycle;Max_cycle;Signal;HPM_P1;HPM_P2
2022/10/18 00:01:16;;;;;;;16.17;8.55;;;15.30;99.90;;;;;;4992396;28;20041;-72
2022/10/18 00:03:43;;;;;;;14.80;8.27;;;15.30;99.90;;;;;;4984222;28;20381;-73
2022/10/18 00:06:09;;;;;;;19.05;8.43;;;15.20;99.90;;;;;;4991095;28;20065;-73
2022/10/18 00:08:37;;;;;;;13.82;6.28;;;15.20;99.90;;;;;;4991630;28;20468;-73
2022/10/18 00:11:03;;;;;;;13.77;8.73;;;15.20;99.90;;;;;;4992188;28;20030;-73
2022/10/18 00:13:29;;;;;;;17.33;7.10;;;15.20;99.90;;;;;;4990240;28;20038;-74
2022/10/18 00:16:02;;;;;;;17.90;8.02;;;15.20;99.90;;;;;;4992507;28;20034;-74
2022/10/18 00:18:29;;;;;;;17.58;8.63;;;15.20;99.90;;;;;;4991366;28;20045;-74
2022/10/18 00:21:06;;;;;;;14.55;6.70;;;15.20;99.90;;;;;;4991811;28;20412;-73
2022/10/18 00:23:34;;;;;;;16.55;8.38;;;15.20;99.90;;;;;;4986486;28;20035;-73
2022/10/18 00:26:07;;;;;;;12.05;6.10;;;15.20;99.90;;;;;;4997534;28;20468;-73
2022/10/18 00:28:34;;;;;;;23.23;7.45;;;15.20;99.90;;;;;;4987614;28;20038;-74
2022/10/18 00:31:20;;;;;;;10.40;7.13;;;15.20;99.90;;;;;;4992367;28;20460;-74
2022/10/18 00:33:50;;;;;;;13.27;7.40;;;15.30;99.90;;;;;;4985771;28;20030;-72
2022/10/18 00:36:17;;;;;;;13.80;7.50;;;15.40;99.90;;;;;;4992236;28;20038;-74
2022/10/18 00:38:44;;;;;;;12.80;7.25;;;15.40;99.90;;;;;;4991409;28;20042;-72
2022/10/18 00:41:13;;;;;;;13.23;8.20;;;15.50;99.90;;;;;;4994738;28;20030;-74
2022/10/18 00:44:03;;;;;;;12.20;7.30;;;15.50;99.90;;;;;;4993627;28;20037;-72
2022/10/18 00:46:32;;;;;;;13.90;7.05;;;15.50;99.90;;;;;;4995895;28;20046;-76
2022/10/18 00:49:05;;;;;;;13.00;7.18;;;15.50;99.90;;;;;;4995921;28;20051;-72
2022/10/18 00:51:40;;;;;;;12.63;7.00;;;15.50;99.90;;;;;;4995413;28;20037;-76
2022/10/18 00:54:06;;;;;;;10.57;5.68;;;15.50;99.90;;;;;;4993514;28;20031;-72
2022/10/18 00:56:33;;;;;;;15.48;7.15;;;15.50;99.90;;;;;;4995015;28;20046;-73
2022/10/18 00:59:00;;;;;;;11.55;6.60;;;15.50;99.90;;;;;;4995897;28;20395;-73
2022/10/18 01:01:26;;;;;;;11.20;7.40;;;15.40;99.90;;;;;;4995427;28;20499;-73
2022/10/18 01:03:54;;;;;;;12.07;6.40;;;15.40;99.90;;;;;;4993301;28;20038;-73
2022/10/18 01:06:20;;;;;;;10.63;6.63;;;15.40;99.90;;;;;;5009707;28;20054;-73
2022/10/18 01:09:13;;;;;;;15.80;7.55;;;15.30;99.90;;;;;;4994876;28;20037;-74
2022/10/18 01:12:16;;;;;;;17.88;9.57;;;15.30;99.90;;;;;;5008767;28;20046;-72
2022/10/18 01:15:30;;;;;;;18.05;7.15;;;15.30;99.90;;;;;;4993650;28;20041;-72
2022/10/18 01:18:22;;;;;;;13.38;8.38;;;15.30;99.90;;;;;;4914797;29;20533;-74
2022/10/18 01:21:03;;;;;;;12.57;7.35;;;15.40;99.90;;;;;;4988391;28;20239;-72
2022/10/18 01:23:48;;;;;;;11.10;6.75;;;15.30;99.90;;;;;;4993678;28;20038;-76
2022/10/18 01:27:12;;;;;;;13.63;8.15;;;15.30;99.90;;;;;;4995514;28;20038;-72
2022/10/18 01:29:50;;;;;;;13.23;7.55;;;15.30;99.90;;;;;;4890168;28;20047;-73
2022/10/18 01:32:21;;;;;;;12.82;7.30;;;15.40;99.90;;;;;;4987783;28;20039;-74
2022/10/18 01:34:51;;;;;;;12.75;8.05;;;15.40;99.90;;;;;;4990677;28;20030;-73
2022/10/18 01:37:19;;;;;;;17.48;7.95;;;15.30;99.90;;;;;;4980453;28;20042;-73
2022/10/18 01:39:47;;;;;;;18.40;8.73;;;15.30;99.90;;;;;;4985867;28;20046;-73
2022/10/18 01:42:17;;;;;;;19.15;7.43;;;15.40;99.90;;;;;;4989190;28;20041;-74
2022/10/18 01:44:45;;;;;;;15.02;7.47;;;15.30;99.90;;;;;;4985125;28;20034;-74
2022/10/18 01:47:13;;;;;;;9.90;6.95;;;15.30;99.90;;;;;;4995310;28;20038;-74
2022/10/18 01:49:39;;;;;;;11.05;6.75;;;15.30;99.90;;;;;;4993828;28;20492;-74
2022/10/18 01:52:08;;;;;;;16.85;7.50;;;15.30;99.90;;;;;;4993259;28;20039;-73
2022/10/18 01:54:37;;;;;;;15.35;8.40;;;15.40;99.90;;;;;;4992738;28;20038;-74
2022/10/18 01:57:36;;;;;;;14.10;8.10;;;15.40;99.90;;;;;;4976733;28;20057;-72
2022/10/18 02:00:22;;;;;;;11.43;6.50;;;15.40;99.90;;;;;;4994618;28;20042;-74
2022/10/18 02:03:20;;;;;;;13.50;7.18;;;15.40;99.90;;;;;;4989563;28;20042;-73
2022/10/18 02:06:10;;;;;;;11.25;6.85;;;15.40;99.90;;;;;;5006916;28;20053;-73
2022/10/18 02:08:58;;;;;;;10.65;6.20;;;15.60;99.90;;;;;;4956943;28;20062;-74
2022/10/18 02:11:25;;;;;;;13.90;5.90;;;15.70;99.90;;;;;;4994770;28;20035;-73
2022/10/18 02:14:11;;;;;;;11.43;5.85;;;15.80;99.90;;;;;;4992290;28;20042;-73
2022/10/18 02:17:05;;;;;;;9.68;4.55;;;15.80;99.90;;;;;;4976138;28;20046;-73
2022/10/18 02:19:42;;;;;;;7.10;5.10;;;15.90;99.90;;;;;;4990923;28;20054;-75
2022/10/18 02:22:11;;;;;;;7.68;4.50;;;15.90;99.90;;;;;;4994193;28;20038;-72
2022/10/18 02:24:43;;;;;;;5.95;4.28;;;16.00;99.90;;;;;;4990828;28;20035;-74
2022/10/18 02:27:10;;;;;;;10.02;4.60;;;16.00;99.90;;;;;;4993185;28;20042;-73
2022/10/18 02:29:36;;;;;;;6.30;4.07;;;16.00;99.90;;;;;;4993052;28;20030;-73
2022/10/18 02:33:01;;;;;;;8.45;3.88;;;16.10;99.90;;;;;;4993727;28;20039;-73
2022/10/18 02:35:34;;;;;;;12.77;4.45;;;16.10;99.90;;;;;;4931901;29;20041;-73
2022/10/18 02:38:03;;;;;;;8.10;5.13;;;16.20;99.90;;;;;;4933999;29;20048;-73
2022/10/18 02:40:29;;;;;;;8.50;4.15;;;16.20;99.90;;;;;;4933369;29;20051;-72
2022/10/18 02:42:57;;;;;;;8.32;4.38;;;16.30;99.90;;;;;;4932673;29;20044;-73
2022/10/18 02:45:25;;;;;;;13.68;4.40;;;16.30;99.90;;;;;;4931995;29;20043;-73
2022/10/18 02:47:51;;;;;;;7.93;4.18;;;16.30;99.90;;;;;;4932690;29;20646;-73
2022/10/18 02:50:18;;;;;;;5.20;3.35;;;16.40;99.90;;;;;;4933037;29;20537;-73
2022/10/18 02:52:44;;;;;;;6.95;3.85;;;16.40;99.90;;;;;;4932338;29;20117;-73
2022/10/18 02:55:10;;;;;;;7.45;3.92;;;16.40;99.90;;;;;;4931649;29;20075;-74
2022/10/18 02:57:36;;;;;;;5.70;3.70;;;16.40;99.90;;;;;;4932105;29;20593;-73
2022/10/18 03:00:06;;;;;;;5.43;4.03;;;16.40;99.90;;;;;;4901434;29;20044;-73
2022/10/18 03:02:33;;;;;;;9.82;4.38;;;16.40;99.90;;;;;;4914115;29;20067;-74
2022/10/18 03:04:59;;;;;;;7.88;3.83;;;16.30;99.90;;;;;;4931383;29;20043;-74
2022/10/18 03:07:25;;;;;;;7.43;3.28;;;16.30;99.90;;;;;;4991870;28;20057;-74
2022/10/18 03:09:51;;;;;;;8.68;4.07;;;16.30;99.90;;;;;;4992707;28;20045;-74
2022/10/18 03:12:17;;;;;;;6.25;3.65;;;16.40;99.90;;;;;;4993288;28;20034;-74
2022/10/18 03:14:44;;;;;;;6.90;3.47;;;16.40;99.90;;;;;;4991320;28;20037;-73
2022/10/18 03:17:10;;;;;;;8.70;3.75;;;16.40;99.90;;;;;;4992957;28;20042;-74
2022/10/18 03:19:37;;;;;;;9.48;3.45;;;16.40;99.90;;;;;;4992680;28;20138;-75
2022/10/18 03:22:04;;;;;;;6.15;3.22;;;16.40;99.90;;;;;;4993493;28;20042;-74
2022/10/18 03:24:30;;;;;;;7.20;3.67;;;16.40;99.90;;;;;;4984557;28;20368;-75
2022/10/18 03:26:56;;;;;;;7.18;3.47;;;16.40;99.90;;;;;;4982576;28;20057;-74
2022/10/18 03:29:22;;;;;;;8.77;4.05;;;16.40;99.90;;;;;;4992137;28;20034;-73
2022/10/18 03:31:49;;;;;;;6.22;3.25;;;16.30;99.90;;;;;;4990313;28;20054;-73
2022/10/18 03:34:16;;;;;;;11.40;3.65;;;16.40;99.90;;;;;;4991555;28;20045;-73
2022/10/18 03:36:42;;;;;;;4.90;3.55;;;16.40;99.90;;;;;;4991496;28;20049;-73
2022/10/18 03:39:11;;;;;;;5.15;3.05;;;16.40;99.90;;;;;;4992008;28;20495;-74
2022/10/18 03:41:37;;;;;;;11.80;3.75;;;16.40;99.90;;;;;;4984384;28;20035;-73
2022/10/18 03:44:03;;;;;;;17.13;4.22;;;16.40;99.90;;;;;;4992840;28;20038;-73
2022/10/18 03:46:29;;;;;;;7.82;4.88;;;16.50;99.90;;;;;;4992532;28;20097;-73
2022/10/18 03:48:55;;;;;;;6.78;3.83;;;16.70;99.90;;;;;;4990117;28;20612;-73
2022/10/18 03:51:21;;;;;;;8.65;4.40;;;16.80;99.90;;;;;;4992896;28;20038;-73
2022/10/18 03:53:48;;;;;;;8.63;3.90;;;16.70;99.90;;;;;;4989932;28;20054;-74
2022/10/18 03:56:14;;;;;;;8.48;3.58;;;16.70;99.90;;;;;;4992588;28;20049;-73
2022/10/18 03:58:40;;;;;;;9.20;5.25;;;16.70;99.90;;;;;;4986112;28;20475;-74
2022/10/18 04:01:06;;;;;;;7.95;4.38;;;16.60;99.90;;;;;;4990471;28;20038;-73
2022/10/18 04:03:35;;;;;;;6.35;5.03;;;16.50;99.90;;;;;;4991421;28;20046;-72
2022/10/18 04:06:02;;;;;;;8.73;4.65;;;16.40;99.90;;;;;;4991548;28;20041;-72
2022/10/18 04:08:29;;;;;;;7.70;5.22;;;16.30;99.90;;;;;;4988068;28;20049;-72
2022/10/18 04:10:55;;;;;;;15.68;5.20;;;16.20;99.90;;;;;;4991297;28;20209;-72
2022/10/18 04:13:21;;;;;;;9.23;5.65;;;16.20;99.90;;;;;;4992554;28;20034;-74
2022/10/18 04:15:47;;;;;;;7.93;4.55;;;16.10;99.90;;;;;;4989662;28;20041;-74
2022/10/18 04:18:13;;;;;;;10.70;4.85;;;16.10;99.90;;;;;;4991025;28;20038;-72
2022/10/18 04:20:39;;;;;;;7.95;4.60;;;16.00;99.90;;;;;;4991757;28;20039;-72
2022/10/18 04:23:06;;;;;;;12.23;5.68;;;16.00;99.90;;;;;;4992379;28;20053;-73
2022/10/18 04:25:32;;;;;;;7.93;5.28;;;16.00;99.90;;;;;;4990781;28;20053;-73
2022/10/18 04:27:58;;;;;;;12.52;5.35;;;15.90;99.90;;;;;;4991048;28;20057;-73
2022/10/18 04:30:24;;;;;;;8.85;4.40;;;15.90;99.90;;;;;;4992460;28;20061;-72
2022/10/18 04:32:50;;;;;;;7.50;5.07;;;15.90;99.90;;;;;;4990375;28;20039;-72
2022/10/18 04:35:16;;;;;;;14.88;4.93;;;15.90;99.90;;;;;;4992684;28;20456;-73
2022/10/18 04:37:42;;;;;;;9.95;5.30;;;15.80;99.90;;;;;;4989863;28;20042;-74
2022/10/18 04:40:09;;;;;;;8.73;5.68;;;15.80;99.90;;;;;;4992646;28;20042;-74
2022/10/18 04:42:35;;;;;;;9.10;5.38;;;15.80;99.90;;;;;;5004866;28;20034;-77
2022/10/18 04:45:02;;;;;;;13.20;5.13;;;15.80;99.90;;;;;;5000944;28;20048;-73
2022/10/18 04:47:28;;;;;;;8.00;4.38;;;15.80;99.90;;;;;;4990793;28;20042;-74
2022/10/18 04:49:54;;;;;;;13.10;5.70;;;15.80;99.90;;;;;;4991234;28;20057;-74
2022/10/18 04:52:20;;;;;;;7.15;5.32;;;15.80;99.90;;;;;;4991811;28;20105;-73
2022/10/18 04:54:46;;;;;;;7.28;4.38;;;15.80;99.90;;;;;;4991218;28;20030;-73
2022/10/18 04:57:12;;;;;;;10.18;5.40;;;15.70;99.90;;;;;;4989272;28;20099;-74
2022/10/18 04:59:38;;;;;;;12.10;5.97;;;15.70;99.90;;;;;;4990810;28;20141;-76
2022/10/18 05:02:05;;;;;;;12.25;5.13;;;15.70;99.90;;;;;;4990679;28;20038;-75
2022/10/18 05:04:31;;;;;;;8.57;4.78;;;15.70;99.90;;;;;;4991877;28;20471;-75
2022/10/18 05:06:57;;;;;;;9.77;5.35;;;15.70;99.90;;;;;;4989515;28;20300;-75
2022/10/18 05:09:24;;;;;;;8.85;4.97;;;15.70;99.90;;;;;;4991190;28;20045;-74
2022/10/18 05:11:50;;;;;;;11.88;5.60;;;15.70;99.90;;;;;;4991976;28;20038;-73
2022/10/18 05:14:16;;;;;;;9.20;5.07;;;15.60;99.90;;;;;;4988296;28;20050;-75
2022/10/18 05:16:42;;;;;;;8.70;5.45;;;15.60;99.90;;;;;;4971756;28;20047;-75
2022/10/18 05:19:09;;;;;;;10.65;5.28;;;15.60;99.90;;;;;;4992134;28;20030;-75
2022/10/18 05:21:35;;;;;;;9.32;5.93;;;15.60;99.90;;;;;;4991952;28;20052;-75
2022/10/18 05:24:01;;;;;;;10.68;5.78;;;15.60;99.90;;;;;;4991303;28;20026;-75
2022/10/18 05:26:27;;;;;;;8.02;5.80;;;15.60;99.90;;;;;;4993269;28;20491;-75
2022/10/18 05:28:54;;;;;;;11.43;4.97;;;15.60;99.90;;;;;;4993908;28;20038;-74
2022/10/18 05:31:20;;;;;;;9.30;5.25;;;15.50;99.90;;;;;;4993993;28;20053;-74
2022/10/18 05:33:46;;;;;;;12.70;5.45;;;15.50;99.90;;;;;;4994791;28;20057;-73
2022/10/18 05:36:12;;;;;;;9.25;5.18;;;15.50;99.90;;;;;;4994210;28;20487;-73
2022/10/18 05:38:44;;;;;;;9.40;5.07;;;15.50;99.90;;;;;;4993437;28;20397;-75
2022/10/18 05:41:11;;;;;;;15.52;5.82;;;15.50;99.90;;;;;;4995560;28;20460;-74
2022/10/18 05:43:38;;;;;;;10.60;6.05;;;15.40;99.90;;;;;;4994895;28;20034;-77
2022/10/18 05:46:06;;;;;;;7.65;4.93;;;15.40;99.90;;;;;;4995321;28;20031;-73
2022/10/18 05:48:33;;;;;;;8.82;5.05;;;15.40;99.90;;;;;;4992254;28;20053;-74
2022/10/18 05:50:59;;;;;;;9.05;4.85;;;15.40;99.90;;;;;;4994537;28;20034;-74
2022/10/18 05:53:27;;;;;;;7.10;5.07;;;15.40;99.90;;;;;;4993960;28;20042;-74
2022/10/18 05:55:53;;;;;;;12.35;5.63;;;15.30;99.90;;;;;;4994576;28;20035;-74
2022/10/18 05:58:19;;;;;;;10.68;5.68;;;15.20;99.90;;;;;;4993801;28;20043;-75
2022/10/18 06:00:45;;;;;;;8.77;5.68;;;15.20;99.90;;;;;;4994755;28;20038;-75
2022/10/18 06:03:12;;;;;;;8.80;5.65;;;15.20;99.90;;;;;;4996025;28;20392;-74
2022/10/18 06:05:38;;;;;;;11.07;5.90;;;15.20;99.90;;;;;;4994574;28;20460;-76
2022/10/18 06:08:04;;;;;;;8.18;6.07;;;15.10;99.90;;;;;;4992134;28;20045;-73
2022/10/18 06:10:30;;;;;;;9.82;6.15;;;15.20;99.90;;;;;;4993761;28;20383;-74
2022/10/18 06:12:56;;;;;;;9.23;5.22;;;15.20;99.90;;;;;;4994378;28;20034;-75
2022/10/18 06:15:22;;;;;;;10.77;6.07;;;15.20;99.90;;;;;;4994973;28;20089;-75
2022/10/18 06:17:49;;;;;;;10.88;6.22;;;15.30;99.90;;;;;;4992507;28;20057;-75
2022/10/18 06:20:15;;;;;;;10.50;5.93;;;15.30;99.90;;;;;;4994732;28;20030;-75
2022/10/18 06:22:41;;;;;;;9.90;5.90;;;15.30;99.90;;;;;;4994004;28;20030;-75
2022/10/18 06:25:07;;;;;;;12.20;5.57;;;15.40;99.90;;;;;;4994455;28;20027;-74
2022/10/18 06:27:34;;;;;;;9.32;5.03;;;15.50;99.90;;;;;;4993055;28;20030;-74
2022/10/18 06:30:00;;;;;;;9.52;5.70;;;15.50;99.90;;;;;;4992885;28;20037;-75
2022/10/18 06:32:26;;;;;;;9.60;5.13;;;15.50;99.90;;;;;;4976909;28;20045;-75
2022/10/18 06:34:52;;;;;;;7.50;5.15;;;15.60;99.90;;;;;;4993685;28;20464;-74
2022/10/18 06:37:19;;;;;;;9.80;5.53;;;15.70;99.90;;;;;;4992184;28;20038;-73
2022/10/18 06:39:45;;;;;;;6.53;5.18;;;15.70;99.90;;;;;;4993249;28;20030;-74
2022/10/18 06:42:11;;;;;;;7.93;5.05;;;15.70;99.90;;;;;;4994237;28;20030;-74
2022/10/18 06:44:37;;;;;;;10.57;5.68;;;15.80;99.90;;;;;;4994432;28;20057;-74
2022/10/18 06:47:06;;;;;;;9.35;5.25;;;15.90;99.90;;;;;;4992114;28;20045;-74
2022/10/18 06:49:32;;;;;;;13.88;4.80;;;15.90;99.90;;;;;;4993819;28;20053;-74
2022/10/18 06:51:59;;;;;;;7.35;5.00;;;15.90;99.90;;;;;;4993380;28;20026;-75
2022/10/18 06:54:25;;;;;;;11.77;5.32;;;16.00;99.90;;;;;;4995378;28;20030;-75
2022/10/18 06:56:55;;;;;;;9.65;4.97;;;16.00;99.90;;;;;;4992139;28;20483;-75
2022/10/18 06:59:21;;;;;;;10.32;5.50;;;16.10;99.90;;;;;;4994141;28;20046;-73
2022/10/18 07:01:47;;;;;;;9.43;5.53;;;16.10;99.90;;;;;;4993223;28;20387;-75
2022/10/18 07:04:14;;;;;;;9.10;5.45;;;16.10;99.90;;;;;;4993847;28;20045;-74
2022/10/18 07:06:43;;;;;;;16.08;5.63;;;16.10;99.90;;;;;;4992120;28;20794;-74
2022/10/18 07:09:09;;;;;;;9.40;6.15;;;16.10;99.90;;;;;;4993660;28;20038;-76
2022/10/18 07:11:35;;;;;;;15.27;6.97;;;16.00;99.90;;;;;;4992803;28;20383;-76
2022/10/18 07:14:03;;;;;;;17.33;7.20;;;15.90;99.90;;;;;;4993406;28;20038;-76
2022/10/18 07:16:31;;;;;;;12.68;6.28;;;15.90;99.90;;;;;;4992546;28;20399;-75
2022/10/18 07:18:57;;;;;;;12.63;7.63;;;15.80;99.90;;;;;;4993013;28;20042;-74
2022/10/18 07:21:25;;;;;;;13.93;8.38;;;15.70;99.90;;;;;;4992419;28;20034;-75
2022/10/18 07:23:51;;;;;;;12.00;8.40;;;15.70;99.90;;;;;;4991999;28;20049;-74
2022/10/18 07:26:30;;;;;;;14.57;8.65;;;15.80;99.90;;;;;;4993451;28;20451;-76
2022/10/18 07:29:03;;;;;;;18.33;9.57;;;15.70;99.90;;;;;;4992637;28;20041;-76
2022/10/18 07:31:30;;;;;;;16.45;10.50;;;15.70;99.90;;;;;;5008356;28;20483;-76
2022/10/18 07:33:56;;;;;;;15.88;10.07;;;15.60;99.90;;;;;;4993123;28;20125;-75
2022/10/18 07:36:23;;;;;;;19.17;11.75;;;15.60;99.90;;;;;;4992434;28;20034;-75
2022/10/18 07:38:51;;;;;;;15.13;10.30;;;15.70;99.90;;;;;;4992141;28;20042;-75
2022/10/18 07:41:17;;;;;;;15.40;10.73;;;15.70;99.90;;;;;;4992997;28;20030;-76
2022/10/18 07:43:46;;;;;;;22.25;11.05;;;15.80;99.90;;;;;;4992433;28;20038;-76
2022/10/18 07:46:14;;;;;;;20.13;12.45;;;15.90;99.90;;;;;;4986621;28;20026;-75
2022/10/18 07:48:40;;;;;;;21.50;12.38;;;15.90;99.90;;;;;;4985694;28;20039;-75
2022/10/18 07:51:07;;;;;;;19.00;12.02;;;16.00;99.90;;;;;;4986066;28;20033;-76
2022/10/18 07:53:34;;;;;;;16.13;11.50;;;16.00;99.90;;;;;;4993296;28;20034;-76
2022/10/18 07:56:06;;;;;;;17.58;12.07;;;16.10;99.90;;;;;;4990713;28;20035;-75
2022/10/18 07:58:33;;;;;;;18.10;11.05;;;16.20;99.90;;;;;;4992037;28;20053;-75
2022/10/18 08:01:03;;;;;;;19.35;11.30;;;16.20;99.90;;;;;;4992030;28;20039;-75
2022/10/18 08:03:30;;;;;;;;;;;16.30;99.90;;;;;;4992656;28;20046;-75
2022/10/18 08:05:56;;;;;;;13.35;10.23;;;16.20;99.90;;;;;;4992413;28;19910;-74
2022/10/18 08:08:23;;;;;;;14.32;10.75;;;16.20;99.90;;;;;;4990232;28;20042;-75
2022/10/18 08:10:49;;;;;;;18.27;10.02;;;16.30;99.90;;;;;;4992019;28;20034;-76
2022/10/18 08:13:16;;;;;;;17.95;10.30;;;16.30;99.90;;;;;;4992881;28;20039;-75
2022/10/18 08:15:43;;;;;;;12.30;9.23;;;16.30;99.90;;;;;;4992641;28;20031;-75
2022/10/18 08:18:10;;;;;;;19.38;10.10;;;16.30;99.90;;;;;;4989502;28;20403;-74
2022/10/18 08:20:36;;;;;;;17.67;10.57;;;16.30;99.90;;;;;;4992561;28;20030;-75
2022/10/18 08:23:03;;;;;;;17.48;11.63;;;16.40;99.90;;;;;;4992500;28;20460;-73
2022/10/18 08:25:30;;;;;;;18.63;12.70;;;16.40;99.90;;;;;;4992934;28;20411;-74
2022/10/18 08:27:56;;;;;;;17.52;11.43;;;16.40;99.90;;;;;;4990774;28;20042;-75
2022/10/18 08:30:22;;;;;;;12.70;8.57;;;16.50;99.90;;;;;;4992458;28;20031;-75
2022/10/18 08:32:48;;;;;;;12.15;9.18;;;16.50;99.90;;;;;;4992351;28;20476;-76
2022/10/18 08:35:15;;;;;;;14.85;9.45;;;16.50;99.90;;;;;;4992746;28;20035;-75
2022/10/18 08:37:41;;;;;;;10.93;8.05;;;16.50;99.90;;;;;;4991390;28;20033;-75
2022/10/18 08:40:12;;;;;;;19.65;7.85;;;16.60;99.90;;;;;;4990734;28;20035;-75
2022/10/18 08:42:57;;;;;;;10.55;8.27;;;16.70;99.90;;;;;;4992645;28;20364;-77
2022/10/18 08:45:25;;;;;;;14.55;7.82;;;16.90;99.90;;;;;;4992542;28;20388;-75
2022/10/18 08:47:55;;;;;;;11.80;7.30;;;17.10;99.90;;;;;;4990441;28;20043;-74
2022/10/18 08:50:41;;;;;;;9.05;6.80;;;17.00;99.90;;;;;;4992460;28;20503;-74
2022/10/18 08:53:19;;;;;;;8.63;6.35;;;17.00;99.90;;;;;;4992808;28;20039;-74
2022/10/18 08:55:53;;;;;;;12.27;7.25;;;17.10;99.90;;;;;;5008282;28;20101;-74
2022/10/18 08:58:22;;;;;;;9.35;6.90;;;17.20;99.90;;;;;;5003413;28;20054;-75
2022/10/18 09:01:06;;;;;;;9.45;7.28;;;17.40;99.90;;;;;;5005086;28;20034;-75
2022/10/18 09:03:51;;;;;;;11.73;7.28;;;17.50;99.90;;;;;;5008129;28;20030;-75
2022/10/18 09:06:22;;;;;;;13.48;6.90;;;18.00;99.90;;;;;;5006030;28;20036;-74
2022/10/18 09:09:00;;;;;;;10.25;6.63;;;18.50;99.90;;;;;;5004652;28;20046;-77
2022/10/18 09:11:54;;;;;;;9.00;6.35;;;18.90;99.90;;;;;;4996290;28;20353;-75
2022/10/18 09:14:48;;;;;;;9.23;6.30;;;19.30;99.90;;;;;;5010914;28;20034;-74
2022/10/18 09:17:31;;;;;;;9.48;6.80;;;19.00;99.90;;;;;;5009179;28;20046;-74
2022/10/18 09:20:33;;;;;;;12.85;5.95;;;18.70;99.90;;;;;;4994261;28;20039;-76
2022/10/18 09:23:34;;;;;;;12.68;7.15;;;18.30;99.90;;;;;;4995528;28;20061;-75
2022/10/18 09:26:24;;;;;;;15.90;7.05;;;18.20;99.90;;;;;;4994423;28;20049;-75
2022/10/18 09:29:09;;;;;;;12.40;7.55;;;18.40;99.90;;;;;;4992898;28;20391;-76
2022/10/18 09:32:00;;;;;;;12.98;6.55;;;18.60;99.90;;;;;;4995448;28;20046;-75
2022/10/18 09:34:32;;;;;;;14.23;6.68;;;18.60;99.90;;;;;;4996021;28;20034;-74
2022/10/18 09:36:58;;;;;;;10.90;6.50;;;18.50;99.90;;;;;;4990431;28;20042;-74
2022/10/18 09:39:31;;;;;;;15.50;6.53;;;18.40;99.90;;;;;;4995500;28;20038;-75
2022/10/18 09:42:06;;;;;;;12.25;6.47;;;18.40;99.90;;;;;;4995045;28;20393;-75
2022/10/18 09:44:40;;;;;;;13.80;6.53;;;18.60;99.90;;;;;;4995439;28;20034;-74
2022/10/18 09:47:20;;;;;;;12.20;7.53;;;18.80;99.90;;;;;;4975977;28;20054;-73
2022/10/18 09:49:59;;;;;;;13.07;7.20;;;19.20;99.90;;;;;;4995664;28;20392;-75
2022/10/18 09:52:38;;;;;;;11.82;6.35;;;19.60;99.90;;;;;;4995560;28;20035;-75
2022/10/18 09:55:27;;;;;;;12.77;7.55;;;20.00;99.90;;;;;;4994847;28;20031;-74
2022/10/18 09:57:57;;;;;;;9.65;6.50;;;20.30;99.90;;;;;;4992139;28;20045;-75
2022/10/18 10:00:28;;;;;;;10.80;6.57;;;20.10;99.90;;;;;;4995205;28;20384;-75
2022/10/18 10:02:54;;;;;;;11.88;7.22;;;19.80;99.90;;;;;;4994798;28;20034;-75
2022/10/18 10:05:20;;;;;;;10.75;7.82;;;19.30;99.90;;;;;;4994973;28;20045;-74
2022/10/18 10:07:48;;;;;;;15.10;7.85;;;19.10;99.90;;;;;;4993525;28;20053;-75
2022/10/18 10:10:25;;;;;;;12.82;7.47;;;18.90;99.90;;;;;;4994307;28;20035;-75
2022/10/18 10:13:21;;;;;;;14.40;8.02;;;18.80;99.90;;;;;;4993182;28;20474;-78
2022/10/18 10:16:00;;;;;;;12.07;6.85;;;18.90;99.90;;;;;;4989395;28;20034;-75
2022/10/18 10:18:35;;;;;;;12.65;8.18;;;18.80;99.90;;;;;;4993882;28;20042;-75
2022/10/18 10:21:05;;;;;;;12.52;7.45;;;18.90;99.90;;;;;;4994679;28;20396;-75
2022/10/18 10:23:44;;;;;;;12.90;7.18;;;19.00;99.90;;;;;;5009136;28;20046;-75
2022/10/18 10:26:23;;;;;;;10.32;7.10;;;19.10;99.90;;;;;;4992758;28;20046;-75
2022/10/18 10:28:51;;;;;;;9.95;7.15;;;19.10;99.90;;;;;;4994518;28;20049;-75
2022/10/18 10:31:23;;;;;;;11.30;6.47;;;19.10;99.90;;;;;;4994576;28;20037;-74
2022/10/18 10:34:18;;;;;;;14.68;8.23;;;19.20;99.90;;;;;;4995043;28;20061;-75
2022/10/18 10:36:49;;;;;;;10.68;6.97;;;19.30;99.90;;;;;;4993507;28;20404;-75
2022/10/18 10:39:18;;;;;;;11.18;6.90;;;19.40;99.90;;;;;;4994017;28;20046;-76
2022/10/18 10:41:56;;;;;;;9.98;6.75;;;19.50;99.90;;;;;;4994538;28;20049;-75
2022/10/18 10:44:26;;;;;;;11.95;6.63;;;19.70;99.90;;;;;;4992945;28;20046;-75
2022/10/18 10:46:53;;;;;;;9.20;6.15;;;19.40;99.90;;;;;;4979577;28;20047;-77
2022/10/18 10:49:22;;;;;;;12.60;6.10;;;19.20;99.90;;;;;;4992254;28;20050;-75
2022/10/18 10:52:01;;;;;;;12.18;6.63;;;19.40;99.90;;;;;;4993926;28;20042;-75
2022/10/18 10:54:34;;;;;;;10.60;7.40;;;19.50;99.90;;;;;;4993914;28;20049;-74
2022/10/18 10:57:16;;;;;;;17.63;6.30;;;19.70;99.90;;;;;;4991859;28;20057;-75
2022/10/18 10:59:48;;;;;;;12.32;6.80;;;19.80;99.90;;;;;;4994194;28;20046;-73
2022/10/18 11:02:17;;;;;;;10.77;6.63;;;19.80;99.90;;;;;;4993210;28;20369;-75
2022/10/18 11:04:49;;;;;;;12.32;7.03;;;19.90;99.90;;;;;;4994132;28;20030;-75
2022/10/18 11:07:39;;;;;;;9.25;6.40;;;19.70;99.90;;;;;;4990666;28;20365;-75
2022/10/18 11:10:10;;;;;;;11.52;6.28;;;19.50;99.90;;;;;;4993418;28;20034;-75
2022/10/18 11:12:43;;;;;;;12.77;6.40;;;19.40;99.90;;;;;;4993649;28;20034;-74
2022/10/18 11:15:13;;;;;;;10.00;7.30;;;19.30;99.90;;;;;;4993014;28;20035;-75
2022/10/18 11:17:54;;;;;;;10.82;6.50;;;19.10;99.90;;;;;;4991983;28;20035;-75
2022/10/18 11:20:35;;;;;;;15.07;7.18;;;18.90;99.90;;;;;;4994353;28;20038;-75
2022/10/18 11:23:06;;;;;;;9.52;6.03;;;18.80;99.90;;;;;;4991598;28;20042;-75
2022/10/18 11:26:00;;;;;;;7.88;5.68;;;18.70;99.90;;;;;;4975662;28;20042;-76
2022/10/18 11:28:34;;;;;;;9.75;5.63;;;18.60;99.90;;;;;;4992932;28;20045;-75
2022/10/18 11:31:04;;;;;;;10.43;6.53;;;18.60;99.90;;;;;;4992780;28;20472;-75
2022/10/18 11:33:54;;;;;;;9.85;5.38;;;18.50;99.90;;;;;;4993381;28;20376;-75
2022/10/18 11:36:32;;;;;;;7.05;4.82;;;18.40;99.90;;;;;;4992226;28;20046;-76
2022/10/18 11:39:21;;;;;;;9.80;5.80;;;18.40;99.90;;;;;;4993089;28;20042;-75
2022/10/18 11:42:20;;;;;;;11.15;5.53;;;18.40;99.90;;;;;;4993195;28;20038;-75
2022/10/18 11:44:55;;;;;;;10.07;5.80;;;18.50;99.90;;;;;;4988192;28;20051;-75
2022/10/18 11:47:48;;;;;;;12.43;5.82;;;18.50;99.90;;;;;;4991845;28;20058;-75
2022/10/18 11:50:35;;;;;;;8.88;6.15;;;18.50;99.90;;;;;;4988871;28;20510;-75
2022/10/18 11:53:28;;;;;;;9.10;5.57;;;18.50;99.90;;;;;;4992324;28;20042;-75
2022/10/18 11:56:06;;;;;;;10.57;6.03;;;18.50;99.90;;;;;;4987743;28;20053;-75
2022/10/18 11:59:03;;;;;;;8.52;5.32;;;18.60;99.90;;;;;;4992887;28;20061;-74
2022/10/18 12:01:38;;;;;;;12.30;4.88;;;18.60;99.90;;;;;;4991778;28;20042;-75
2022/10/18 12:04:10;;;;;;;10.32;5.82;;;18.60;99.90;;;;;;4992330;28;20030;-75
2022/10/18 12:06:39;;;;;;;9.27;5.25;;;18.60;99.90;;;;;;4991463;28;20042;-75
2022/10/18 12:09:30;;;;;;;8.32;4.95;;;18.70;99.90;;;;;;4992012;28;20038;-74
2022/10/18 12:11:59;;;;;;;;;;;18.70;99.90;;;;;;4991504;28;20045;-79
2022/10/18 12:14:28;;;;;;;7.90;5.25;;;18.70;99.90;;;;;;4991543;28;19914;-75
2022/10/18 12:17:01;;;;;;;10.02;6.15;;;18.70;99.90;;;;;;4990452;28;20045;-75
2022/10/18 12:19:31;;;;;;;10.13;5.60;;;18.70;99.90;;;;;;4991258;28;20057;-75
2022/10/18 12:22:11;;;;;;;10.20;6.18;;;18.80;99.90;;;;;;4991998;28;20034;-76
2022/10/18 12:24:37;;;;;;;6.40;5.00;;;18.70;99.90;;;;;;4992667;28;20475;-75
2022/10/18 12:27:04;;;;;;;8.98;5.25;;;18.60;99.90;;;;;;4990423;28;20057;-76
2022/10/18 12:29:58;;;;;;;7.40;5.43;;;18.40;99.90;;;;;;4991407;28;20042;-76
2022/10/18 12:32:31;;;;;;;11.27;6.07;;;18.40;99.90;;;;;;4989154;28;20459;-75
2022/10/18 12:35:05;;;;;;;8.90;5.43;;;18.30;99.90;;;;;;4991564;28;20034;-76
2022/10/18 12:37:37;;;;;;;9.73;4.30;;;18.20;99.90;;;;;;4990888;28;20041;-75
2022/10/18 12:40:31;;;;;;;10.60;4.15;;;18.10;99.90;;;;;;4991767;28;20034;-75
2022/10/18 12:42:57;;;;;;;10.32;3.53;;;18.10;99.90;;;;;;4986969;28;20471;-76
2022/10/18 12:45:31;;;;;;;6.45;4.47;;;18.10;99.90;;;;;;4992248;28;20027;-74
2022/10/18 12:48:04;;;;;;;6.28;3.75;;;18.20;99.90;;;;;;4989338;28;20030;-78
2022/10/18 12:50:41;;;;;;;6.55;3.80;;;18.30;99.90;;;;;;4992045;28;20051;-75
2022/10/18 12:53:14;;;;;;;8.90;3.58;;;18.30;99.90;;;;;;4991719;28;20027;-75
2022/10/18 12:55:42;;;;;;;4.85;3.45;;;18.40;99.90;;;;;;4990823;28;20038;-75
2022/10/18 12:58:34;;;;;;;7.85;4.82;;;18.40;99.90;;;;;;4990797;28;20035;-75
2022/10/18 13:01:03;;;;;;;6.50;3.42;;;18.40;99.90;;;;;;4991349;28;20057;-75
2022/10/18 13:04:25;;;;;;;7.53;2.97;;;18.50;99.90;;;;;;4991997;28;20026;-75
2022/10/18 13:07:03;;;;;;;5.65;3.30;;;18.60;99.90;;;;;;4930663;29;20036;-75